Time;durP1;ratioP1;P1;durP2;ratioP2;P2;SDS_P1;SDS_P2;PMS_P1;PMS_P2;Temp;Humidity;BMP_temperature;BMP_pressure;BME280_temperature;BME280_humidity;BME280_pressure;Samples;Min_cycle;Max_cycle;Signal;HPM_P1;HPM_P2
2022/12/03 00:00:25;;;;;;;;;69.00;53.67;;;;;2.37;100.00;100437.06;6311399;20;2882755;-52
2022/12/03 00:02:55;;;;;;;;;82.33;58.00;;;;;2.34;100.00;100441.50;6312647;20;3654591;-50
2022/12/03 00:05:25;;;;;;;;;78.67;57.00;;;;;2.53;100.00;100432.38;6308506;20;3654496;-50
2022/12/03 00:07:54;;;;;;;;;75.00;55.00;;;;;2.33;100.00;100445.94;6311815;20;3643025;-55
2022/12/03 00:10:24;;;;;;;;;73.33;55.00;;;;;2.38;100.00;100452.03;6304855;20;3640005;-51
2022/12/03 00:12:53;;;;;;;;;78.67;58.00;;;;;2.20;100.00;100455.84;6308432;20;3639870;-51
2022/12/03 00:15:23;;;;;;;;;74.67;52.67;;;;;2.11;100.00;100452.47;6307817;20;3644393;-50
2022/12/03 00:17:52;;;;;;;;;66.00;53.50;;;;;2.24;100.00;100459.34;6312070;20;2871101;-53
2022/12/03 00:20:23;;;;;;;;;72.67;55.00;;;;;2.21;100.00;100443.47;6274335;20;3622210;-50
2022/12/03 00:22:53;;;;;;;;;71.00;54.00;;;;;2.33;100.00;100451.25;6308606;20;2891050;-51
2022/12/03 00:25:22;;;;;;;;;69.67;55.00;;;;;2.37;100.00;100463.56;6309446;20;3637720;-53
2022/12/03 00:27:51;;;;;;;;;62.50;50.00;;;;;2.26;100.00;100454.88;6311060;20;2873178;-50
2022/12/03 00:30:20;;;;;;;;;72.33;52.67;;;;;2.17;100.00;100455.91;6276756;20;3651340;-52
2022/12/03 00:32:50;;;;;;;;;76.33;56.67;;;;;2.37;100.00;100460.91;6311077;20;3632569;-49
2022/12/03 00:35:19;;;;;;;;;76.67;58.00;;;;;2.29;100.00;100460.16;6307505;20;2878410;-50
2022/12/03 00:37:49;;;;;;;;;72.33;54.33;;;;;2.27;100.00;100467.25;6307674;20;3649236;-50
2022/12/03 00:40:18;;;;;;;;;65.00;52.33;;;;;2.45;100.00;100465.19;6306864;20;3627417;-51
2022/12/03 00:42:48;;;;;;;;;78.00;58.00;;;;;2.27;100.00;100463.72;6310738;20;3623167;-50
2022/12/03 00:45:17;;;;;;;;;68.00;52.67;;;;;2.32;100.00;100473.34;6309665;20;2887956;-49
2022/12/03 00:47:47;;;;;;;;;71.00;54.33;;;;;2.46;100.00;100461.66;6307969;20;3645092;-52
2022/12/03 00:50:16;;;;;;;;;67.00;49.00;;;;;2.27;100.00;100467.25;6310958;20;3650296;-52
2022/12/03 00:52:46;;;;;;;;;75.67;57.33;;;;;2.60;100.00;100468.47;6313284;20;3648232;-50
2022/12/03 00:55:16;;;;;;;;;77.67;55.00;;;;;2.61;100.00;100464.06;6312330;20;3651347;-53
2022/12/03 00:57:46;;;;;;;;;69.67;50.00;;;;;2.17;100.00;100466.50;6313622;20;3648288;-51
2022/12/03 01:00:16;;;;;;;;;62.00;47.67;;;;;2.54;100.00;100462.41;6311147;20;2881806;-51
2022/12/03 01:02:46;;;;;;;;;68.67;53.33;;;;;2.49;100.00;100466.91;6315283;20;2873347;-52
2022/12/03 01:05:15;;;;;;;;;74.33;56.00;;;;;2.54;100.00;100465.06;6311833;20;3639868;-49
2022/12/03 01:07:46;;;;;;;;;72.00;55.00;;;;;2.43;100.00;100473.19;6311083;20;2872377;-54
2022/12/03 01:10:16;;;;;;;;;68.67;53.00;;;;;2.47;100.00;100468.69;6313401;20;3621123;-51
2022/12/03 01:12:45;;;;;;;;;74.67;55.33;;;;;2.63;100.00;100464.88;6314768;20;3647161;-52
2022/12/03 01:15:15;;;;;;;;;71.67;55.33;;;;;2.41;100.00;100465.25;6312469;20;3633694;-52
2022/12/03 01:17:45;;;;;;;;;66.33;47.33;;;;;2.44;100.00;100459.03;6315280;20;3637795;-51
2022/12/03 01:20:14;;;;;;;;;60.00;45.00;;;;;2.40;100.00;100463.50;6312877;20;2869064;-51
2022/12/03 01:22:43;;;;;;;;;69.67;51.67;;;;;2.51;100.00;100454.50;6281973;20;3636070;-51
2022/12/03 01:25:13;;;;;;;;;72.00;53.00;;;;;2.44;100.00;100460.81;6315220;20;3642936;-55
2022/12/03 01:27:42;;;;;;;;;73.33;55.00;;;;;2.41;100.00;100459.94;6314962;20;3636708;-50
2022/12/03 01:30:13;;;;;;;;;70.00;51.67;;;;;2.25;100.00;100466.38;6313264;20;3646080;-52
2022/12/03 01:32:43;;;;;;;;;71.00;54.33;;;;;2.46;100.00;100472.25;6311387;20;3627436;-50
2022/12/03 01:35:12;;;;;;;;;74.33;58.00;;;;;2.57;100.00;100471.16;6312861;20;3627381;-51
2022/12/03 01:37:42;;;;;;;;;72.67;54.33;;;;;2.63;100.00;100470.19;6314155;20;3631495;-51
2022/12/03 01:40:15;;;;;;;;;76.00;55.00;;;;;2.39;100.00;100472.34;6311326;20;3646064;-48
2022/12/03 01:42:45;;;;;;;;;68.33;54.00;;;;;2.19;100.00;100479.72;6310333;20;3621162;-56
2022/12/03 01:45:23;;;;;;;;;68.00;54.67;;;;;2.38;100.00;100480.31;6315720;20;2874726;-56
2022/12/03 01:47:52;;;;;;;;;75.33;54.00;;;;;2.32;100.00;100478.66;6312868;20;3656720;-53
2022/12/03 01:50:32;;;;;;;;;71.67;55.00;;;;;2.19;100.00;100482.38;6307387;20;2877489;-55
2022/12/03 01:53:03;;;;;;;;;71.33;54.00;;;;;2.18;100.00;100486.78;6311511;20;3634774;-51
2022/12/03 01:55:33;;;;;;;;;70.00;53.67;;;;;2.29;100.00;100491.94;6313662;20;3623218;-54
2022/12/03 01:58:03;;;;;;;;;67.33;50.67;;;;;2.43;100.00;100483.78;6312128;20;2882653;-54
2022/12/03 02:00:33;;;;;;;;;70.67;50.33;;;;;2.46;100.00;100482.88;6311538;20;3646120;-53
2022/12/03 02:03:16;;;;;;;;;69.67;55.67;;;;;2.51;100.00;100484.53;6310215;20;2868103;-55
2022/12/03 02:05:46;;;;;;;;;78.00;57.67;;;;;2.54;100.00;100468.56;6308434;20;3649264;-49
2022/12/03 02:08:38;;;;;;;;;68.33;52.00;;;;;2.45;100.00;100475.78;6311872;20;3637940;-51
2022/12/03 02:11:31;;;;;;;;;71.33;52.00;;;;;2.23;100.00;100476.13;6311091;20;3644214;-52
2022/12/03 02:14:13;;;;;;;;;71.67;54.33;;;;;2.40;100.00;100473.22;6311532;20;3644013;-52
2022/12/03 02:16:43;;;;;;;;;75.67;55.33;;;;;2.42;100.00;100476.72;6308049;20;3638782;-53
2022/12/03 02:19:30;;;;;;;;;68.00;48.67;;;;;2.40;100.00;100475.88;6307733;20;3671108;-53
2022/12/03 02:22:26;;;;;;;;;64.33;46.33;;;;;2.32;100.00;100483.94;6312199;20;2876421;-53
2022/12/03 02:25:30;;;;;;;;;61.00;47.50;;;;;2.36;100.00;100476.81;6309342;20;2867033;-49
2022/12/03 02:28:02;;;;;;;;;68.67;50.00;;;;;2.26;100.00;100481.38;6278173;20;2882865;-50
2022/12/03 02:30:33;;;;;;;;;66.33;48.67;;;;;2.27;100.00;100479.63;6310806;20;2888875;-51
2022/12/03 02:33:03;;;;;;;;;71.67;54.33;;;;;2.17;100.00;100478.88;6311640;20;3632528;-51
2022/12/03 02:35:35;;;;;;;;;71.33;54.67;;;;;2.32;100.00;100475.13;6309431;20;3629449;-51
2022/12/03 02:38:21;;;;;;;;;70.00;56.33;;;;;2.07;100.00;100479.91;6310329;20;3635651;-52
2022/12/03 02:40:57;;;;;;;;;71.00;54.00;;;;;2.31;100.00;100478.66;6311038;20;3637763;-52
2022/12/03 02:43:26;;;;;;;;;71.00;53.00;;;;;2.49;100.00;100485.47;6311293;20;2880529;-54
2022/12/03 02:46:00;;;;;;;;;71.00;53.33;;;;;2.15;100.00;100478.00;6310438;20;3647251;-52
2022/12/03 02:48:36;;;;;;;;;71.33;55.00;;;;;2.34;100.00;100479.50;6309309;20;2868191;-54
2022/12/03 02:51:09;;;;;;;;;73.33;54.67;;;;;2.39;100.00;100482.06;6310281;20;3640908;-51
2022/12/03 02:53:45;;;;;;;;;70.00;54.33;;;;;2.45;100.00;100486.38;6311740;20;2870297;-51
2022/12/03 02:56:25;;;;;;;;;64.33;48.00;;;;;2.38;100.00;100491.78;6309109;20;3628466;-54
2022/12/03 02:59:01;;;;;;;;;67.33;53.00;;;;;2.30;100.00;100482.22;6310568;20;3627420;-52
2022/12/03 03:01:30;;;;;;;;;71.00;53.00;;;;;2.30;100.00;100477.78;6309236;20;3628518;-51
2022/12/03 03:04:02;;;;;;;;;76.67;54.33;;;;;2.07;100.00;100485.19;6308328;20;3645136;-53
2022/12/03 03:06:31;;;;;;;;;67.00;51.00;;;;;2.39;100.00;100479.41;6306125;20;2877350;-49
2022/12/03 03:09:02;;;;;;;;;56.50;45.00;;;;;2.30;100.00;100476.91;6308769;20;2866952;-53
2022/12/03 03:11:31;;;;;;;;;72.33;55.33;;;;;2.29;100.00;100481.34;6281541;20;3629515;-51
2022/12/03 03:14:02;;;;;;;;;71.33;52.33;;;;;2.13;100.00;100477.16;6309871;20;3644007;-50
2022/12/03 03:16:33;;;;;;;;;73.00;54.00;;;;;2.32;100.00;100481.31;6306872;20;2877480;-52
2022/12/03 03:19:03;;;;;;;;;71.33;52.00;;;;;2.30;100.00;100476.91;6309749;20;3642994;-52
2022/12/03 03:21:33;;;;;;;;;68.00;51.00;;;;;2.18;100.00;100472.66;6308744;20;2883763;-53
2022/12/03 03:24:04;;;;;;;;;66.00;54.33;;;;;2.13;100.00;100474.50;6307105;20;3624036;-51
2022/12/03 03:26:34;;;;;;;;;67.67;53.67;;;;;2.23;100.00;100476.13;6308099;20;2881668;-52
2022/12/03 03:29:03;;;;;;;;;70.67;52.00;;;;;2.42;100.00;100488.22;6307115;20;3650009;-53
2022/12/03 03:31:33;;;;;;;;;70.67;54.00;;;;;2.28;100.00;100490.19;6306151;20;3639944;-51
2022/12/03 03:34:03;;;;;;;;;69.00;53.33;;;;;2.12;100.00;100500.13;6309318;20;3629396;-52
2022/12/03 03:36:33;;;;;;;;;73.00;54.00;;;;;2.28;100.00;100489.31;6307412;20;3647091;-51
2022/12/03 03:39:05;;;;;;;;;72.33;55.67;;;;;2.45;100.00;100487.28;6309855;20;3624367;-51
2022/12/03 03:41:35;;;;;;;;;63.00;47.00;;;;;2.44;100.00;100485.53;6306601;20;2864935;-53
2022/12/03 03:44:07;;;;;;;;;65.67;50.00;;;;;2.32;100.00;100486.59;6275654;20;3628487;-53
2022/12/03 03:46:37;;;;;;;;;61.50;46.50;;;;;2.22;100.00;100492.94;6308491;20;2878459;-49
2022/12/03 03:49:08;;;;;;;;;74.33;54.67;;;;;2.20;100.00;100484.13;6274268;20;3652463;-51
2022/12/03 03:51:38;;;;;;;;;72.33;52.67;;;;;2.28;100.00;100486.66;6308621;20;3646581;-49
2022/12/03 03:54:08;;;;;;;;;69.00;50.33;;;;;2.27;100.00;100493.75;6308352;20;3647202;-52
2022/12/03 03:56:38;;;;;;;;;67.67;53.67;;;;;2.26;100.00;100486.66;6308044;20;2876363;-55
2022/12/03 03:59:08;;;;;;;;;67.00;51.67;;;;;2.39;100.00;100482.94;6308468;20;2879745;-54
2022/12/03 04:01:37;;;;;;;;;67.33;52.67;;;;;2.41;100.00;100485.56;6308967;20;2871189;-53
2022/12/03 04:04:23;;;;;;;;;71.00;54.00;;;;;2.43;100.00;100481.13;6307964;20;3638939;-52
2022/12/03 04:06:53;;;;;;;;;68.00;54.00;;;;;2.32;100.00;100476.00;6308404;20;3622243;-53
2022/12/03 04:09:22;;;;;;;;;70.00;52.33;;;;;2.24;100.00;100477.88;6306730;20;3635837;-52
2022/12/03 04:14:39;;;;;;;;;73.50;56.00;;;;;2.05;100.00;100471.97;6309828;20;2867129;-50
2022/12/03 04:17:08;;;;;;;;;71.33;52.33;;;;;2.31;100.00;100462.75;6277199;20;3642107;-54
2022/12/03 04:19:38;;;;;;;;;69.33;53.00;;;;;2.23;100.00;100470.81;6302152;20;2892536;-51
2022/12/03 04:30:32;;;;;;;;;69.33;55.67;;;;;2.28;100.00;100476.94;6313644;20;3610682;-51
2022/12/03 04:35:51;;;;;;;;;75.33;57.33;;;;;2.28;100.00;100484.00;6317371;20;3631642;-53
2022/12/03 04:38:20;;;;;;;;;77.00;57.67;;;;;2.26;100.00;100476.06;6313454;20;3641938;-51
2022/12/03 04:41:05;;;;;;;;;75.67;58.00;;;;;2.46;100.00;100480.22;6316473;20;2874329;-51
2022/12/03 04:44:32;;;;;;;;;75.67;57.33;;;;;2.33;100.00;100477.75;6316091;20;3630567;-51
2022/12/03 04:46:24;;;;;;;;;73.00;55.33;;;;;2.52;100.00;100480.09;6312154;20;3630601;-53
2022/12/03 04:48:53;;;;;;;;;74.67;54.00;;;;;2.42;100.00;100480.25;6315467;20;3645085;-49
2022/12/03 04:51:22;;;;;;;;;64.50;52.50;;;;;2.24;100.00;100477.88;6312208;20;2860668;-54
2022/12/03 04:53:52;;;;;;;;;66.67;48.33;;;;;2.32;100.00;100478.66;6283158;20;3634605;-56
2022/12/03 04:56:21;;;;;;;;;79.33;59.67;;;;;2.05;100.00;100479.91;6314323;20;3646134;-53
2022/12/03 04:58:51;;;;;;;;;77.33;56.00;;;;;2.31;100.00;100479.53;6312288;20;3649273;-51
2022/12/03 05:01:20;;;;;;;;;75.67;54.00;;;;;2.32;100.00;100478.66;6311452;20;3653435;-52
2022/12/03 05:03:50;;;;;;;;;80.33;61.00;;;;;2.25;100.00;100479.63;6313780;20;2891054;-54
2022/12/03 05:06:20;;;;;;;;;77.00;58.33;;;;;2.34;100.00;100484.81;6311333;20;2878537;-51
2022/12/03 05:08:49;;;;;;;;;72.00;52.00;;;;;2.28;100.00;100490.19;6311058;20;3646241;-50
2022/12/03 05:11:19;;;;;;;;;74.00;54.33;;;;;2.48;100.00;100486.38;6312292;20;3649254;-51
2022/12/03 05:13:50;;;;;;;;;80.67;55.33;;;;;2.00;100.00;100491.47;6315924;20;3656570;-50
2022/12/03 05:16:19;;;;;;;;;76.67;58.00;;;;;2.29;100.00;100480.44;6312124;20;2882709;-51
2022/12/03 05:18:49;;;;;;;;;83.00;57.33;;;;;2.19;100.00;100479.72;6311762;20;3661781;-52
2022/12/03 05:21:18;;;;;;;;;78.33;58.00;;;;;2.33;100.00;100480.38;6311462;20;3647154;-52
2022/12/03 05:23:48;;;;;;;;;81.67;59.33;;;;;2.46;100.00;100483.72;6312798;20;3646189;-60
2022/12/03 05:26:18;;;;;;;;;73.00;55.33;;;;;2.34;100.00;100478.59;6312638;20;2875427;-60
2022/12/03 05:28:48;;;;;;;;;79.33;56.33;;;;;2.31;100.00;100483.97;6313723;20;3641993;-58
2022/12/03 05:31:17;;;;;;;;;70.33;55.00;;;;;2.34;100.00;100481.25;6315835;20;2870132;-60
2022/12/03 05:33:47;;;;;;;;;78.67;57.67;;;;;2.22;100.00;100474.38;6314394;20;3647086;-60
2022/12/03 05:36:17;;;;;;;;;79.67;56.33;;;;;2.28;100.00;100479.56;6310233;20;3654427;-60
2022/12/03 05:38:46;;;;;;;;;73.33;55.00;;;;;2.25;100.00;100479.63;6312096;20;3645032;-60
2022/12/03 05:44:02;;;;;;;;;57.00;44.50;;;;;2.11;100.00;100481.63;6310198;20;2491941;-59
2022/12/03 05:46:32;;;;;;;;;79.00;57.00;;;;;2.24;100.00;100477.00;6281066;20;3643986;-59
2022/12/03 05:49:01;;;;;;;;;75.00;57.00;;;;;2.23;100.00;100484.06;6312914;20;2880470;-59
2022/12/03 05:51:30;;;;;;;;;73.67;55.00;;;;;2.40;100.00;100486.47;6280928;20;3648230;-59
2022/12/03 05:54:00;;;;;;;;;76.00;54.67;;;;;2.32;100.00;100485.72;6312888;20;3621142;-59
2022/12/03 05:56:29;;;;;;;;;73.00;56.33;;;;;2.41;100.00;100486.44;6311682;20;2876385;-59
2022/12/03 05:58:59;;;;;;;;;71.33;53.33;;;;;2.23;100.00;100496.44;6312059;20;3635705;-59
2022/12/03 06:01:28;;;;;;;;;69.00;53.67;;;;;2.31;100.00;100498.06;6307554;20;3630501;-59
2022/12/03 06:03:58;;;;;;;;;75.67;54.33;;;;;2.44;100.00;100496.13;6314404;20;3637949;-59
2022/12/03 06:06:27;;;;;;;;;77.00;56.67;;;;;2.20;100.00;100505.31;6310135;20;3633581;-59
2022/12/03 06:08:57;;;;;;;;;74.00;56.00;;;;;2.46;100.00;100507.59;6309283;20;2881847;-59
2022/12/03 06:11:28;;;;;;;;;81.33;56.00;;;;;2.40;100.00;100510.34;6312648;20;3653648;-60
2022/12/03 06:13:58;;;;;;;;;72.33;55.67;;;;;2.34;100.00;100511.31;6314145;20;3630670;-59
2022/12/03 06:16:27;;;;;;;;;71.00;56.67;;;;;2.27;100.00;100514.94;6309271;20;3623170;-59
2022/12/03 06:18:57;;;;;;;;;74.67;58.00;;;;;2.40;100.00;100521.81;6310220;20;3630453;-59
2022/12/03 06:21:27;;;;;;;;;72.33;55.33;;;;;2.25;100.00;100521.16;6310482;20;2886818;-60
2022/12/03 06:23:56;;;;;;;;;66.67;47.67;;;;;2.16;100.00;100519.50;6313454;20;3648363;-59
2022/12/03 06:26:25;;;;;;;;;76.67;53.33;;;;;2.33;100.00;100506.88;6313140;20;3651321;-59
2022/12/03 06:28:55;;;;;;;;;69.67;55.00;;;;;2.21;100.00;100515.00;6312791;20;3620088;-53
2022/12/03 06:31:25;;;;;;;;;76.33;58.33;;;;;2.34;100.00;100521.91;6311679;20;3631531;-53
2022/12/03 06:33:54;;;;;;;;;73.33;53.00;;;;;2.26;100.00;100513.16;6312314;20;3634648;-49
2022/12/03 06:36:26;;;;;;;;;77.00;56.00;;;;;2.08;100.00;100514.31;6313780;20;3642955;-51
2022/12/03 06:38:55;;;;;;;;;75.33;58.00;;;;;2.26;100.00;100523.75;6314146;20;3629329;-54
2022/12/03 06:41:25;;;;;;;;;78.33;57.67;;;;;2.32;100.00;100513.09;6310351;20;3645118;-52
2022/12/03 06:43:54;;;;;;;;;72.33;54.33;;;;;2.18;100.00;100520.34;6309400;20;3633708;-56
2022/12/03 06:46:24;;;;;;;;;71.33;56.00;;;;;2.11;100.00;100519.56;6311494;20;2876341;-53
2022/12/03 06:48:53;;;;;;;;;76.33;56.67;;;;;2.27;100.00;100524.66;6309030;20;3628489;-55
2022/12/03 06:51:23;;;;;;;;;62.33;49.00;;;;;2.20;100.00;100523.84;6309391;20;3618146;-52
2022/12/03 06:53:52;;;;;;;;;80.00;61.00;;;;;2.30;100.00;100522.84;6314413;20;3625203;-59
2022/12/03 06:56:22;;;;;;;;;71.00;53.00;;;;;2.33;100.00;100520.13;6307366;20;3635675;-58
2022/12/03 06:58:52;;;;;;;;;77.00;54.67;;;;;2.08;100.00;100506.38;6313187;20;3635717;-58
2022/12/03 07:01:22;;;;;;;;;82.33;62.00;;;;;2.48;100.00;100512.88;6308718;20;3632541;-58
2022/12/03 07:03:52;;;;;;;;;77.33;58.00;;;;;2.26;100.00;100512.28;6312194;20;3646242;-58
2022/12/03 07:06:21;;;;;;;;;101.00;88.67;;;;;2.50;100.00;100521.66;6308429;20;3685704;-58
2022/12/03 07:08:52;;;;;;;;;146.75;115.25;;;;;2.57;100.00;100523.31;6273366;20;3735927;-58
2022/12/03 07:11:30;;;;;;;;;101.33;87.33;;;;;2.50;100.00;100526.94;6276097;20;3681514;-53
2022/12/03 07:14:02;;;;;;;;;91.67;63.67;;;;;2.27;100.00;100520.22;6280213;20;3658710;-56
2022/12/03 07:16:34;;;;;;;;;171.50;132.50;;;;;2.59;100.00;100511.78;6303269;20;1958708;-55
2022/12/03 07:19:05;;;;;;;;;76.67;58.67;;;;;2.56;100.00;100514.50;6277492;20;3622172;-52
2022/12/03 07:21:35;;;;;;;;;95.00;79.00;;;;;2.55;100.00;100519.81;6310632;20;3675343;-50
2022/12/03 07:24:05;;;;;;;;;67.00;53.33;;;;;2.48;100.00;100518.19;6277771;20;3614844;-53
2022/12/03 07:26:35;;;;;;;;;78.67;60.00;;;;;2.73;100.00;100527.47;6304441;20;3621117;-51
2022/12/03 07:29:04;;;;;;;;;97.00;88.67;;;;;2.89;100.00;100524.56;6308181;20;3649348;-50
2022/12/03 07:31:34;;;;;;;;;98.67;85.33;;;;;3.01;100.00;100529.69;6310470;20;3648275;-51
2022/12/03 07:34:04;;;;;;;;;84.00;62.67;;;;;3.04;100.00;100533.16;6308934;20;3640978;-53
2022/12/03 07:36:33;;;;;;;;;71.33;57.33;;;;;2.99;100.00;100536.78;6277723;20;2878586;-55
2022/12/03 07:39:03;;;;;;;;;78.33;57.67;;;;;3.19;100.00;100533.81;6310944;20;3651348;-58
2022/12/03 07:41:33;;;;;;;;;66.67;54.33;;;;;2.90;100.00;100526.31;6310755;20;3617974;-58
2022/12/03 07:44:02;;;;;;;;;74.67;55.67;;;;;3.17;100.00;100519.69;6306268;20;3637719;-58
2022/12/03 07:46:38;;;;;;;;;63.50;49.00;;;;;3.07;100.00;100521.63;6309399;20;2870096;-58
2022/12/03 07:49:08;;;;;;;;;89.67;67.00;;;;;3.13;100.00;100531.25;6276514;20;3659727;-58
2022/12/03 07:51:38;;;;;;;;;78.67;59.67;;;;;2.97;100.00;100530.63;6271486;20;3639869;-58
2022/12/03 07:54:07;;;;;;;;;94.00;76.00;;;;;3.06;100.00;100535.78;6309596;20;3670069;-59
2022/12/03 07:56:36;;;;;;;;;61.00;48.00;;;;;3.14;100.00;100541.84;6274165;20;2875499;-58
2022/12/03 07:59:05;;;;;;;;;75.00;57.00;;;;;3.39;100.00;100541.38;6278371;20;3638804;-58
2022/12/03 08:01:35;;;;;;;;;78.00;59.33;;;;;3.12;100.00;100538.31;6308761;20;3641039;-59
2022/12/03 08:04:05;;;;;;;;;64.67;50.00;;;;;3.34;100.00;100535.28;6310219;20;2878468;-59
2022/12/03 08:06:32;;;;;;;;;170.50;154.50;;;;;3.58;100.00;100541.91;6304227;20;1967239;-59
2022/12/03 08:09:02;;;;;;;;;119.50;104.00;;;;;4.01;100.00;100525.13;6276213;20;3580608;-60
2022/12/03 08:11:33;;;;;;;;;98.00;91.00;;;;;4.21;100.00;100544.16;6309780;20;3654467;-59
2022/12/03 08:14:19;;;;;;;;;129.25;101.25;;;;;4.00;100.00;100539.31;6276825;20;4495224;-59
2022/12/03 08:16:49;;;;;;;;;96.67;76.33;;;;;4.10;99.61;100536.41;6269136;20;3681685;-59
2022/12/03 08:19:18;;;;;;;;;71.67;54.00;;;;;4.12;98.41;100529.28;6266521;20;3645082;-59
2022/12/03 08:21:48;;;;;;;;;84.00;60.67;;;;;4.20;98.42;100536.22;6303394;20;3651412;-52
2022/12/03 08:24:20;;;;;;;;;92.33;76.33;;;;;3.96;99.30;100528.75;6311074;20;3675246;-53
2022/12/03 08:26:49;;;;;;;;;91.50;82.00;;;;;4.66;98.02;100530.75;6279859;20;3523225;-49
2022/12/03 08:29:19;;;;;;;;;90.00;72.00;;;;;4.80;97.94;100538.41;6307135;20;3677481;-53
2022/12/03 08:31:53;;;;;;;;;77.67;60.67;;;;;4.35;97.28;100531.44;6278252;20;3633648;-52
2022/12/03 08:34:30;;;;;;;;;64.33;45.33;;;;;4.39;98.39;100542.88;6309109;20;3638797;-50
2022/12/03 08:37:17;;;;;;;;;80.67;63.00;;;;;4.96;97.62;100537.09;6306399;20;3634774;-54
2022/12/03 08:39:49;;;;;;;;;69.33;54.00;;;;;4.62;98.33;100539.72;6307541;20;3620065;-52
2022/12/03 08:42:41;;;;;;;;;76.67;58.67;;;;;4.88;99.72;100541.75;6309143;20;3633726;-52
2022/12/03 08:45:31;;;;;;;;;66.00;50.33;;;;;4.45;98.32;100542.75;6310457;20;3637796;-50
2022/12/03 08:48:33;;;;;;;;;72.33;55.67;;;;;4.87;97.44;100555.06;6313080;20;3635862;-51
2022/12/03 08:51:25;;;;;;;;;75.00;56.33;;;;;4.66;97.60;100545.81;6312380;20;3637798;-59
2022/12/03 08:54:10;;;;;;;;;77.67;54.33;;;;;5.17;97.15;100549.00;6309436;20;3652348;-60
2022/12/03 08:56:41;;;;;;;;;70.67;52.67;;;;;4.38;98.05;100552.66;6277695;20;2874464;-59
2022/12/03 08:59:42;;;;;;;;;76.00;56.00;;;;;4.55;97.47;100548.72;6309482;20;3634685;-59
2022/12/03 09:02:32;;;;;;;;;72.00;55.67;;;;;5.13;97.21;100535.78;6309595;20;3631511;-59
2022/12/03 09:05:21;;;;;;;;;75.00;58.33;;;;;5.13;97.10;100535.78;6309320;20;3604461;-59
2022/12/03 09:07:51;;;;;;;;;57.50;47.50;;;;;4.77;97.20;100528.69;6308999;20;2856692;-60
2022/12/03 09:10:21;;;;;;;;;68.67;54.00;;;;;4.70;96.94;100531.53;6280426;20;3639907;-60
2022/12/03 09:12:50;;;;;;;;;74.00;57.00;;;;;4.26;97.26;100544.06;6315243;20;3638874;-60
2022/12/03 09:15:20;;;;;;;;;74.00;55.00;;;;;4.68;97.15;100544.88;6317023;20;3633740;-60
2022/12/03 09:17:49;;;;;;;;;70.33;54.33;;;;;5.24;97.45;100541.75;6311060;20;3636740;-59
2022/12/03 09:20:19;;;;;;;;;67.33;50.00;;;;;5.31;96.31;100540.66;6307187;20;2892127;-60
2022/12/03 09:22:48;;;;;;;;;75.67;56.00;;;;;5.02;95.61;100539.59;6312034;20;3641016;-60
2022/12/03 09:25:18;;;;;;;;;74.00;56.00;;;;;5.48;94.97;100546.41;6317848;20;3614924;-59
2022/12/03 09:27:48;;;;;;;;;75.33;58.33;;;;;5.19;94.40;100554.28;6314632;20;3629407;-59
2022/12/03 09:30:18;;;;;;;;;83.00;65.33;;;;;5.27;94.55;100555.84;6312423;20;3637882;-60
2022/12/03 09:32:47;;;;;;;;;75.00;59.00;;;;;5.80;94.01;100549.13;6314607;20;3624349;-53
2022/12/03 09:35:17;;;;;;;;;65.67;48.33;;;;;5.35;93.19;100545.00;6311143;20;2868178;-57
2022/12/03 09:37:45;;;;;;;;;119.50;96.00;;;;;5.32;94.50;100545.06;6308797;20;1948312;-56
2022/12/03 09:40:15;;;;;;;;;76.67;57.67;;;;;5.64;94.54;100538.00;6282947;20;3632560;-56
2022/12/03 09:42:45;;;;;;;;;83.33;59.33;;;;;5.50;94.53;100535.69;6313378;20;3660680;-58
2022/12/03 09:45:16;;;;;;;;;85.67;67.00;;;;;5.74;93.61;100534.19;6279311;20;3648273;-58
2022/12/03 09:47:48;;;;;;;;;72.67;58.67;;;;;5.65;92.92;100534.41;6312241;20;3613900;-56
2022/12/03 09:50:25;;;;;;;;;67.67;50.67;;;;;5.39;94.39;100528.00;6309859;20;3644005;-58
2022/12/03 09:53:00;;;;;;;;;69.33;50.67;;;;;5.90;94.90;100534.63;6313391;20;3634760;-57
2022/12/03 09:55:30;;;;;;;;;71.00;54.67;;;;;5.06;94.38;100525.31;6313455;20;3628402;-59
2022/12/03 09:58:00;;;;;;;;;75.00;57.33;;;;;5.38;94.76;100515.63;6315587;20;2878697;-60
2022/12/03 10:00:30;;;;;;;;;77.33;56.67;;;;;5.74;94.16;100523.53;6310222;20;3649247;-59
2022/12/03 10:03:04;;;;;;;;;75.67;56.67;;;;;5.63;94.34;100517.59;6306661;20;3631555;-58
2022/12/03 10:05:34;;;;;;;;;74.67;57.67;;;;;5.90;93.21;100519.50;6312303;20;3629422;-56
2022/12/03 10:08:12;;;;;;;;;75.67;57.00;;;;;6.04;93.15;100513.78;6318008;20;3637738;-59
2022/12/03 10:10:42;;;;;;;;;71.33;53.00;;;;;6.20;92.21;100510.66;6314789;20;3644022;-50
2022/12/03 10:13:29;;;;;;;;;75.33;58.33;;;;;6.00;94.34;100497.91;6314962;20;3623194;-50
2022/12/03 10:16:01;;;;;;;;;78.33;58.33;;;;;6.25;93.95;100506.94;6313313;20;3654475;-52
2022/12/03 10:18:34;;;;;;;;;78.33;59.00;;;;;6.00;93.09;100500.59;6282099;20;3642995;-53
2022/12/03 10:21:37;;;;;;;;;64.33;53.00;;;;;5.93;94.01;100492.78;6309761;20;3616012;-52
2022/12/03 10:24:30;;;;;;;;;86.00;64.67;;;;;5.87;94.01;100484.03;6310685;20;3641042;-53
2022/12/03 10:27:24;;;;;;;;;70.00;52.67;;;;;6.55;92.76;100470.41;6312291;20;3639986;-52
2022/12/03 10:30:03;;;;;;;;;46.00;39.50;;;;;6.43;91.83;100476.16;6312305;20;2862890;-48
2022/12/03 10:32:49;;;;;;;;;71.00;51.67;;;;;6.07;93.77;100475.50;6279639;20;3630561;-51
2022/12/03 10:35:24;;;;;;;;;66.33;52.33;;;;;6.19;93.79;100472.47;6313035;20;3623182;-56
2022/12/03 10:38:23;;;;;;;;;66.00;51.67;;;;;6.34;93.59;100481.75;6309837;20;3625367;-53
2022/12/03 10:41:26;;;;;;;;;65.67;52.33;;;;;6.17;94.13;100476.97;6306886;20;2868161;-55
2022/12/03 10:44:24;;;;;;;;;69.67;55.67;;;;;5.97;94.50;100474.03;6313355;20;3629437;-54
2022/12/03 10:47:11;;;;;;;;;74.67;56.33;;;;;5.63;95.01;100477.63;6311224;20;3635695;-56
2022/12/03 10:49:41;;;;;;;;;72.33;52.33;;;;;5.95;94.18;100471.41;6308531;20;3657686;-55
2022/12/03 10:52:22;;;;;;;;;54.00;40.33;;;;;6.33;94.97;100480.91;6276145;20;2876539;-54
2022/12/03 10:54:54;;;;;;;;;72.00;52.33;;;;;5.98;93.72;100474.00;6312278;20;3626310;-58
2022/12/03 10:57:24;;;;;;;;;65.67;53.67;;;;;6.13;92.56;100478.88;6312417;20;3619094;-58
2022/12/03 10:59:54;;;;;;;;;69.33;53.00;;;;;6.41;92.09;100485.13;6308313;20;3635668;-59
2022/12/03 11:02:24;;;;;;;;;65.00;50.00;;;;;6.24;93.17;100474.97;6307479;20;2491913;-58
2022/12/03 11:04:54;;;;;;;;;69.67;52.00;;;;;6.15;93.00;100470.81;6278946;20;3638805;-58
2022/12/03 11:07:25;;;;;;;;;69.00;51.00;;;;;6.25;93.70;100466.06;6311586;20;3640884;-55
2022/12/03 11:09:54;;;;;;;;;63.33;49.00;;;;;6.55;92.79;100467.72;6304831;20;2873334;-57
2022/12/03 11:12:28;;;;;;;;;68.00;49.00;;;;;6.36;93.51;100464.78;6310818;20;3631522;-56
2022/12/03 11:15:03;;;;;;;;;53.00;38.67;;;;;6.41;93.66;100461.13;6309281;20;2876405;-56
2022/12/03 11:17:50;;;;;;;;;64.00;51.67;;;;;6.57;93.26;100457.03;6313616;20;3613961;-56
2022/12/03 11:20:19;;;;;;;;;72.00;53.33;;;;;6.16;93.09;100456.53;6312598;20;3642956;-55
2022/12/03 11:22:57;;;;;;;;;67.00;52.00;;;;;6.30;92.69;100449.00;6316562;20;2764974;-56
2022/12/03 11:25:26;;;;;;;;;41.00;37.33;;;;;6.27;92.84;100446.44;6279483;20;3605549;-58
2022/12/03 11:28:12;;;;;;;;;52.50;40.50;;;;;6.51;92.39;100433.22;6281745;20;2860728;-56
2022/12/03 11:30:48;;;;;;;;;64.00;49.33;;;;;6.06;93.34;100449.78;6281516;20;2883842;-57
2022/12/03 11:33:40;;;;;;;;;63.33;49.33;;;;;6.49;93.36;100443.06;6308002;20;2868113;-57
2022/12/03 11:36:12;;;;;;;;;66.00;49.33;;;;;6.61;93.67;100445.34;6312905;20;3644145;-57
2022/12/03 11:38:53;;;;;;;;;63.33;51.00;;;;;6.77;91.49;100441.22;6308377;20;3622272;-59